Time;durP1;ratioP1;P1;durP2;ratioP2;P2;SDS_P1;SDS_P2;PMS_P1;PMS_P2;Temp;Humidity;BMP_temperature;BMP_pressure;BME280_temperature;BME280_humidity;BME280_pressure;Samples;Min_cycle;Max_cycle;Signal;HPM_P1;HPM_P2
2022/04/08 00:00:32;;;;;;;7.15;1.70;;;7.70;99.90;;;;;;5075169;28;20097;-88
2022/04/08 00:03:01;;;;;;;7.20;1.58;;;5.30;99.90;;;;;;5025351;28;20048;-93
2022/04/08 00:05:27;;;;;;;9.52;1.80;;;7.70;99.90;;;;;;5074833;28;20181;-91
2022/04/08 00:07:53;;;;;;;9.02;1.95;;;5.50;99.90;;;;;;5058625;28;20102;-90
2022/04/08 00:10:19;;;;;;;7.82;1.60;;;6.20;99.90;;;;;;5057456;28;20052;-88
2022/04/08 00:12:44;;;;;;;9.48;1.55;;;5.40;99.90;;;;;;5059234;28;20138;-90
2022/04/08 00:15:10;;;;;;;6.50;1.10;;;6.60;99.90;;;;;;5041644;28;20145;-89
2022/04/08 00:17:36;;;;;;;11.55;1.90;;;7.30;99.90;;;;;;5059243;28;20051;-92
2022/04/08 00:20:03;;;;;;;13.65;1.75;;;5.70;99.90;;;;;;5042216;28;20049;-92
2022/04/08 00:22:29;;;;;;;6.80;1.58;;;5.30;99.90;;;;;;5057498;28;20044;-90
2022/04/08 00:24:57;;;;;;;10.57;1.77;;;5.60;99.90;;;;;;5058506;28;20052;-94
2022/04/08 00:27:25;;;;;;;6.35;1.30;;;3.20;99.90;;;;;;5057302;28;20047;-91
2022/04/08 00:29:52;;;;;;;7.75;1.50;;;5.60;99.90;;;;;;5042162;28;20064;-92
2022/04/08 00:32:17;;;;;;;8.63;1.35;;;7.40;99.90;;;;;;5058644;28;20056;-91
2022/04/08 00:34:43;;;;;;;7.80;1.35;;;5.30;99.90;;;;;;5041985;28;20051;-90
2022/04/08 00:37:09;;;;;;;7.32;1.42;;;6.90;99.90;;;;;;5041863;28;20127;-88
2022/04/08 00:39:35;;;;;;;5.30;0.95;;;7.30;99.90;;;;;;5075241;28;20111;-91
2022/04/08 00:42:06;;;;;;;6.65;1.05;;;6.20;99.90;;;;;;5041508;28;20044;-93
2022/04/08 00:44:32;;;;;;;4.43;0.90;;;6.50;99.90;;;;;;5041092;28;20055;-88
2022/04/08 00:46:57;;;;;;;5.43;1.00;;;5.10;99.90;;;;;;5041554;28;20048;-90
2022/04/08 00:49:26;;;;;;;8.07;1.02;;;5.50;99.90;;;;;;5057711;28;20048;-91
2022/04/08 00:51:51;;;;;;;3.95;0.90;;;4.70;99.90;;;;;;5059024;28;20044;-89
2022/04/08 00:54:19;;;;;;;2.05;0.60;;;7.60;99.90;;;;;;5075156;28;20075;-90
2022/04/08 00:56:48;;;;;;;3.25;0.65;;;;;;;;;;5058399;28;20403;-88
2022/04/08 00:59:15;;;;;;;2.53;0.57;;;4.70;99.90;;;;;;5043439;28;20296;-90
2022/04/08 01:01:40;;;;;;;2.78;0.60;;;6.80;99.90;;;;;;5027028;28;20479;-88
2022/04/08 01:04:07;;;;;;;2.45;0.77;;;5.20;99.90;;;;;;5059401;28;20045;-87
2022/04/08 01:06:33;;;;;;;3.97;0.52;;;6.80;99.90;;;;;;5058140;28;20052;-90
2022/04/08 01:09:00;;;;;;;3.40;0.70;;;6.60;99.90;;;;;;5043132;28;20060;-93
2022/04/08 01:11:26;;;;;;;3.83;0.73;;;;;;;;;;5041968;28;20040;-92
2022/04/08 01:13:52;;;;;;;3.13;0.68;;;;;;;;;;5057721;28;20048;-90
2022/04/08 01:16:19;;;;;;;7.80;0.90;;;4.40;99.90;;;;;;5057305;28;20044;-92
2022/04/08 01:18:45;;;;;;;3.30;1.10;;;6.20;99.90;;;;;;5025816;28;20066;-91
2022/04/08 01:21:11;;;;;;;2.88;0.63;;;4.50;99.90;;;;;;5040328;28;20048;-93
2022/04/08 01:23:37;;;;;;;2.05;0.60;;;5.00;99.90;;;;;;5058227;28;20112;-90
2022/04/08 01:26:07;;;;;;;3.05;0.63;;;4.10;99.90;;;;;;5057197;28;20558;-89
2022/04/08 01:28:33;;;;;;;4.05;1.13;;;;;;;;;;5057633;28;20151;-91
2022/04/08 01:31:02;;;;;;;5.35;2.17;;;4.10;99.90;;;;;;5075353;28;20056;-92
2022/04/08 01:33:28;;;;;;;4.68;0.95;;;2.70;99.90;;;;;;5040814;28;20079;-87
2022/04/08 01:35:54;;;;;;;2.75;0.68;;;3.90;99.90;;;;;;5040989;28;20032;-91
2022/04/08 01:38:19;;;;;;;6.15;1.08;;;3.90;99.90;;;;;;5057713;28;20131;-94
2022/04/08 01:40:45;;;;;;;1.70;0.60;;;5.50;99.90;;;;;;5056493;28;20048;-89
2022/04/08 01:43:11;;;;;;;6.28;0.93;;;3.30;99.90;;;;;;5040958;28;20064;-91
2022/04/08 01:45:41;;;;;;;5.25;1.00;;;3.70;99.90;;;;;;5057574;28;20144;-93
2022/04/08 01:48:09;;;;;;;2.40;0.90;;;4.40;99.90;;;;;;5056860;28;20044;-90
2022/04/08 01:50:35;;;;;;;8.30;1.48;;;5.80;99.90;;;;;;5057182;28;20052;-92
2022/04/08 01:53:01;;;;;;;8.80;1.08;;;5.40;99.90;;;;;;5057532;28;20419;-93
2022/04/08 01:55:26;;;;;;;4.53;1.15;;;4.60;99.90;;;;;;5074362;28;20041;-90
2022/04/08 01:57:52;;;;;;;4.45;0.88;;;4.90;99.90;;;;;;5039486;28;20047;-90
2022/04/08 02:00:18;;;;;;;9.88;1.20;;;5.60;99.90;;;;;;5039784;28;20143;-92
2022/04/08 02:02:44;;;;;;;5.85;2.03;;;3.70;99.90;;;;;;5042892;28;20094;-92
2022/04/08 02:05:15;;;;;;;7.72;1.35;;;3.70;99.90;;;;;;5043389;28;20040;-92
2022/04/08 02:07:41;;;;;;;2.13;1.08;;;5.90;99.90;;;;;;5045250;28;20446;-91
2022/04/08 02:10:07;;;;;;;10.70;1.48;;;5.40;99.90;;;;;;5060640;28;20048;-90
2022/04/08 02:12:33;;;;;;;9.32;1.55;;;3.80;99.90;;;;;;5027279;28;20055;-92
2022/04/08 02:14:59;;;;;;;5.43;1.45;;;5.50;99.90;;;;;;5043623;28;20472;-94
2022/04/08 02:17:28;;;;;;;8.60;1.48;;;3.60;99.90;;;;;;5060008;28;20131;-94
2022/04/08 02:19:55;;;;;;;7.20;1.48;;;3.60;99.90;;;;;;5045997;28;20073;-91
2022/04/08 02:22:24;;;;;;;7.18;1.30;;;3.70;99.90;;;;;;5061006;28;20045;-94
2022/04/08 02:24:50;;;;;;;8.80;1.20;;;5.80;99.90;;;;;;5044435;28;20080;-94
2022/04/08 02:27:22;;;;;;;4.95;1.30;;;5.80;99.90;;;;;;5060503;28;20094;-88
2022/04/08 02:29:47;;;;;;;4.38;1.33;;;3.70;99.90;;;;;;5060740;28;20045;-92
2022/04/08 02:32:13;;;;;;;10.43;2.55;;;4.70;99.90;;;;;;5027425;28;20368;-90
2022/04/08 02:34:41;;;;;;;10.52;1.52;;;5.50;99.90;;;;;;5044990;28;20113;-94
2022/04/08 02:37:19;;;;;;;5.65;1.55;;;3.20;99.90;;;;;;5044622;28;20080;-94
2022/04/08 02:39:45;;;;;;;7.65;1.90;;;5.40;99.90;;;;;;5060577;28;20090;-92
2022/04/08 02:42:11;;;;;;;5.65;1.10;;;5.50;99.90;;;;;;5060146;28;20056;-89
2022/04/08 02:44:37;;;;;;;5.50;1.02;;;3.90;99.90;;;;;;5044194;28;20143;-94
2022/04/08 02:47:03;;;;;;;5.65;1.58;;;3.70;99.90;;;;;;5060773;28;20055;-92
2022/04/08 02:49:29;;;;;;;8.00;1.88;;;3.50;99.90;;;;;;5060568;28;20072;-92
2022/04/08 02:51:55;;;;;;;6.25;1.33;;;4.30;99.90;;;;;;5059579;28;20488;-91
2022/04/08 02:54:21;;;;;;;7.05;1.40;;;2.20;99.90;;;;;;5044469;28;20044;-90
2022/04/08 02:56:47;;;;;;;4.53;1.33;;;5.50;99.90;;;;;;5061438;28;20047;-90
2022/04/08 02:59:12;;;;;;;5.32;1.15;;;2.20;99.90;;;;;;5045290;28;20480;-90
2022/04/08 03:01:38;;;;;;;6.78;1.17;;;5.10;99.90;;;;;;5062611;28;20175;-92
2022/04/08 03:04:40;;;;;;;3.60;1.10;;;4.90;99.90;;;;;;5062817;28;20044;-94
2022/04/08 03:07:05;;;;;;;;;;;3.10;99.90;;;;;;5004501;28;20045;-95
2022/04/08 03:09:31;;;;;;;10.23;1.52;;;3.10;99.90;;;;;;5051068;28;19974;-93
2022/04/08 03:11:57;;;;;;;4.03;1.10;;;4.70;99.90;;;;;;5062317;28;20106;-95
2022/04/08 03:14:31;;;;;;;6.85;1.25;;;5.00;99.90;;;;;;5044584;28;20048;-92
2022/04/08 03:16:57;;;;;;;10.02;1.60;;;5.10;99.90;;;;;;5061336;28;20041;-93
2022/04/08 03:19:23;;;;;;;5.47;1.50;;;3.20;99.90;;;;;;5079361;28;20052;-90
2022/04/08 03:21:49;;;;;;;3.35;1.83;;;4.40;99.90;;;;;;5046039;28;20044;-92
2022/04/08 03:24:17;;;;;;;8.40;2.33;;;3.70;99.90;;;;;;5060965;28;20045;-92
2022/04/08 03:26:48;;;;;;;5.60;1.35;;;4.30;99.90;;;;;;5027458;28;20044;-92
2022/04/08 03:29:14;;;;;;;10.25;1.55;;;3.00;99.90;;;;;;5059398;28;20052;-92
2022/04/08 03:31:42;;;;;;;10.80;1.38;;;5.30;99.90;;;;;;5047927;28;20450;-95
2022/04/08 03:34:08;;;;;;;5.63;1.45;;;3.20;99.90;;;;;;5051262;28;20048;-94
2022/04/08 03:36:51;;;;;;;10.15;1.65;;;5.40;99.90;;;;;;5066893;28;20054;-96
2022/04/08 03:39:17;;;;;;;10.15;1.58;;;4.60;99.90;;;;;;5049475;28;20474;-96
2022/04/08 03:41:43;;;;;;;13.93;1.67;;;3.10;99.90;;;;;;5049861;28;20035;-95
2022/04/08 03:44:16;;;;;;;9.90;2.00;;;3.10;99.90;;;;;;5049239;28;20134;-95
2022/04/08 03:46:46;;;;;;;12.95;2.10;;;4.30;99.90;;;;;;5052904;28;20043;-96
2022/04/08 03:49:14;;;;;;;5.35;1.77;;;4.00;99.90;;;;;;5056118;22;20049;-69
2022/04/08 03:51:44;;;;;;;14.15;4.05;;;3.80;99.90;;;;;;5035609;28;20125;-70
2022/04/08 03:54:10;;;;;;;9.35;2.08;;;3.00;99.90;;;;;;5035756;28;20037;-70
2022/04/08 03:56:37;;;;;;;9.60;1.98;;;3.00;99.90;;;;;;5035604;28;20044;-70
2022/04/08 03:59:04;;;;;;;11.70;2.22;;;3.00;99.90;;;;;;5053550;28;20094;-70
2022/04/08 04:01:30;;;;;;;10.27;1.92;;;3.10;99.90;;;;;;5035709;28;20041;-69
2022/04/08 04:03:56;;;;;;;14.73;2.15;;;3.10;99.90;;;;;;5019067;28;20126;-70
2022/04/08 04:06:21;;;;;;;8.80;1.85;;;3.00;99.90;;;;;;5035549;28;20089;-70
2022/04/08 04:08:47;;;;;;;8.27;2.15;;;3.10;99.90;;;;;;5035418;28;20068;-70
2022/04/08 04:11:15;;;;;;;11.05;1.77;;;3.20;99.90;;;;;;5035371;28;20071;-71
2022/04/08 04:13:44;;;;;;;4.13;0.98;;;3.20;99.90;;;;;;5035595;28;20614;-71
2022/04/08 04:16:11;;;;;;;6.25;1.38;;;3.30;99.90;;;;;;5035351;28;20045;-71
2022/04/08 04:18:37;;;;;;;3.22;1.08;;;3.70;99.90;;;;;;5035323;28;20037;-71
2022/04/08 04:21:03;;;;;;;2.78;0.93;;;3.20;99.90;;;;;;5035210;28;20060;-71
2022/04/08 04:23:29;;;;;;;3.47;1.10;;;3.10;99.90;;;;;;5035142;28;20040;-71
2022/04/08 04:25:55;;;;;;;2.80;0.73;;;3.00;99.90;;;;;;5018159;28;20548;-70
2022/04/08 04:28:20;;;;;;;2.42;1.10;;;3.00;99.90;;;;;;5018716;28;20044;-71
2022/04/08 04:30:46;;;;;;;4.75;1.10;;;3.00;99.90;;;;;;5035159;28;20052;-70
2022/04/08 04:33:12;;;;;;;3.40;1.10;;;3.00;99.90;;;;;;5035200;28;20251;-71
2022/04/08 04:35:38;;;;;;;4.28;1.35;;;3.00;99.90;;;;;;5035351;28;20047;-71
2022/04/08 04:38:05;;;;;;;2.60;1.30;;;3.00;99.90;;;;;;5034876;28;20094;-71
2022/04/08 04:40:31;;;;;;;4.90;1.30;;;3.00;99.90;;;;;;5034920;28;20044;-71
2022/04/08 04:42:57;;;;;;;2.58;1.10;;;3.90;99.90;;;;;;5034881;28;20040;-70
2022/04/08 04:45:23;;;;;;;6.53;1.30;;;2.90;99.90;;;;;;5034756;28;20048;-71
2022/04/08 04:47:49;;;;;;;2.63;1.00;;;2.90;99.90;;;;;;5034633;28;20040;-70
2022/04/08 04:50:15;;;;;;;2.85;1.17;;;2.90;99.90;;;;;;5018265;28;20082;-70
2022/04/08 04:52:40;;;;;;;3.40;1.00;;;2.80;99.90;;;;;;5034688;28;20056;-70
2022/04/08 04:55:07;;;;;;;2.70;1.25;;;2.80;99.90;;;;;;5035038;28;20832;-70
2022/04/08 04:57:33;;;;;;;4.80;1.00;;;2.80;99.90;;;;;;5034698;28;20052;-70
2022/04/08 04:59:58;;;;;;;5.25;1.10;;;2.70;99.90;;;;;;5034585;28;20044;-71
2022/04/08 05:02:24;;;;;;;2.22;1.00;;;2.80;99.90;;;;;;5034800;28;20492;-71
2022/04/08 05:04:50;;;;;;;2.72;0.98;;;2.70;99.90;;;;;;5034562;28;20037;-70
2022/04/08 05:07:15;;;;;;;9.40;2.53;;;2.70;99.90;;;;;;5034478;28;20102;-70
2022/04/08 05:09:41;;;;;;;4.32;1.65;;;2.70;99.90;;;;;;5034362;28;20045;-70
2022/04/08 05:12:08;;;;;;;3.75;1.30;;;2.70;99.90;;;;;;5034320;28;20048;-70
2022/04/08 05:14:34;;;;;;;4.15;1.15;;;2.70;99.90;;;;;;5034319;28;20041;-71
2022/04/08 05:17:00;;;;;;;2.15;0.90;;;2.80;99.90;;;;;;5034416;28;20446;-70
2022/04/08 05:19:26;;;;;;;6.60;1.80;;;2.80;99.90;;;;;;5052152;28;20044;-70
2022/04/08 05:21:52;;;;;;;2.83;1.02;;;2.80;99.90;;;;;;5034670;28;20388;-71
2022/04/08 05:24:21;;;;;;;5.90;1.73;;;2.90;99.90;;;;;;5034488;28;20489;-71
2022/04/08 05:26:47;;;;;;;3.35;1.15;;;3.10;99.90;;;;;;5034467;28;20496;-71
2022/04/08 05:29:13;;;;;;;4.60;1.30;;;3.10;99.90;;;;;;5034076;28;20045;-71
2022/04/08 05:31:38;;;;;;;9.13;1.40;;;3.90;99.90;;;;;;5033947;28;20045;-72
2022/04/08 05:34:04;;;;;;;6.45;1.50;;;3.20;99.90;;;;;;5033945;28;20538;-72
2022/04/08 05:36:30;;;;;;;5.25;2.80;;;3.30;99.90;;;;;;5033018;28;20048;-70
2022/04/08 05:38:55;;;;;;;9.18;1.58;;;3.30;99.90;;;;;;5033675;28;20036;-70
2022/04/08 05:41:21;;;;;;;3.95;1.42;;;3.40;99.90;;;;;;5034294;28;20041;-70
2022/04/08 05:43:47;;;;;;;6.20;1.20;;;3.50;99.90;;;;;;5001178;28;20480;-73
2022/04/08 05:46:14;;;;;;;2.95;1.13;;;3.60;99.90;;;;;;5034154;28;20037;-71
2022/04/08 05:48:40;;;;;;;4.18;1.30;;;3.70;99.90;;;;;;5033624;28;20045;-74
2022/04/08 05:51:06;;;;;;;5.60;1.40;;;3.80;99.90;;;;;;5034099;28;20480;-70
2022/04/08 05:53:32;;;;;;;9.80;2.97;;;3.90;99.90;;;;;;5051883;28;20052;-71
2022/04/08 05:55:59;;;;;;;6.00;1.20;;;3.90;99.90;;;;;;5033884;28;20033;-71
2022/04/08 05:58:25;;;;;;;6.40;2.08;;;4.00;99.90;;;;;;5017308;28;20048;-76
2022/04/08 06:00:52;;;;;;;8.15;1.70;;;4.00;99.90;;;;;;5034086;28;20052;-71
2022/04/08 06:03:18;;;;;;;2.88;1.50;;;3.90;99.90;;;;;;5034027;28;20073;-71
2022/04/08 06:05:43;;;;;;;4.18;1.35;;;3.90;99.90;;;;;;5017267;28;20044;-71
2022/04/08 06:08:09;;;;;;;7.78;1.50;;;3.80;99.90;;;;;;5033981;28;20056;-70
2022/04/08 06:10:36;;;;;;;5.43;1.90;;;3.90;99.90;;;;;;5033849;28;20085;-71
2022/04/08 06:13:02;;;;;;;5.93;1.52;;;3.80;99.90;;;;;;5033558;28;20542;-70
2022/04/08 06:15:28;;;;;;;5.60;1.60;;;3.90;99.90;;;;;;5033548;28;20049;-71
2022/04/08 06:17:55;;;;;;;4.30;1.60;;;3.90;99.90;;;;;;5016958;28;20037;-77
2022/04/08 06:20:22;;;;;;;5.00;1.45;;;4.00;99.90;;;;;;5033489;28;20033;-68
2022/04/08 06:22:48;;;;;;;4.45;1.55;;;4.10;99.90;;;;;;5033499;28;20041;-68
2022/04/08 06:25:22;;;;;;;3.42;1.40;;;4.10;99.90;;;;;;5033189;28;20143;-68
2022/04/08 06:28:04;;;;;;;6.75;1.40;;;4.10;99.90;;;;;;5017379;28;20146;-70
2022/04/08 06:30:36;;;;;;;3.38;1.40;;;4.20;99.90;;;;;;5017937;28;20040;-71
2022/04/08 06:33:03;;;;;;;4.47;1.42;;;4.90;99.90;;;;;;5017102;28;20110;-71
2022/04/08 06:35:29;;;;;;;3.03;1.25;;;5.00;99.90;;;;;;5016863;28;20048;-71
2022/04/08 06:38:03;;;;;;;1.95;1.33;;;4.50;99.90;;;;;;5032934;28;20064;-71
2022/04/08 06:40:32;;;;;;;7.35;1.98;;;;;;;;;;5032985;28;20088;-71
2022/04/08 06:42:59;;;;;;;2.00;1.40;;;4.60;99.90;;;;;;5049973;28;20497;-71
2022/04/08 06:45:26;;;;;;;4.43;1.40;;;4.60;99.90;;;;;;5016747;28;20048;-71
2022/04/08 06:47:53;;;;;;;6.80;1.27;;;4.90;99.90;;;;;;5034407;28;20447;-70
2022/04/08 06:50:19;;;;;;;3.03;1.45;;;4.70;99.90;;;;;;5054663;28;20126;-71
2022/04/08 06:52:46;;;;;;;3.53;1.30;;;5.20;99.90;;;;;;5036495;28;20049;-70
2022/04/08 06:55:12;;;;;;;2.42;1.40;;;4.70;99.90;;;;;;5036908;28;20489;-71
2022/04/08 06:57:39;;;;;;;6.13;1.65;;;4.80;99.90;;;;;;5055309;28;20111;-71
2022/04/08 07:00:08;;;;;;;4.40;1.23;;;4.90;99.90;;;;;;5036570;28;20060;-71
2022/04/08 07:02:33;;;;;;;2.40;1.00;;;4.90;99.90;;;;;;5037021;28;20489;-71
2022/04/08 07:04:59;;;;;;;5.85;1.73;;;5.00;99.90;;;;;;5036544;28;20048;-71
2022/04/08 07:07:30;;;;;;;4.63;1.10;;;5.00;99.90;;;;;;5020005;28;20041;-71
2022/04/08 07:09:59;;;;;;;1.85;1.15;;;5.30;99.90;;;;;;5036812;28;20049;-71
2022/04/08 07:12:26;;;;;;;5.43;1.70;;;5.10;99.90;;;;;;5036202;28;20056;-71
2022/04/08 07:14:52;;;;;;;4.28;1.02;;;5.10;99.90;;;;;;5036668;28;20047;-71
2022/04/08 07:17:25;;;;;;;5.50;1.20;;;5.40;99.90;;;;;;5019865;28;20045;-71
2022/04/08 07:19:50;;;;;;;4.30;1.13;;;5.10;99.90;;;;;;5036160;28;20068;-71
2022/04/08 07:22:16;;;;;;;9.50;3.05;;;5.20;99.90;;;;;;5036656;28;20479;-72
2022/04/08 07:24:42;;;;;;;4.57;1.02;;;5.40;99.90;;;;;;5036290;28;20045;-71
2022/04/08 07:27:07;;;;;;;5.32;1.35;;;5.50;99.90;;;;;;5036124;28;20114;-71
2022/04/08 07:29:33;;;;;;;6.47;1.40;;;5.80;99.90;;;;;;5036470;28;20492;-71
2022/04/08 07:31:59;;;;;;;3.97;1.38;;;5.70;99.90;;;;;;5035891;28;20078;-71
2022/04/08 07:34:24;;;;;;;2.20;1.10;;;5.70;99.90;;;;;;5036139;28;20053;-72
2022/04/08 07:36:50;;;;;;;2.60;1.23;;;5.80;99.90;;;;;;5036082;28;20430;-71
2022/04/08 07:39:16;;;;;;;3.13;1.38;;;6.60;99.90;;;;;;5035935;28;20721;-72
2022/04/08 07:41:42;;;;;;;4.25;1.30;;;6.50;99.90;;;;;;5003382;28;20083;-72
2022/04/08 07:44:07;;;;;;;3.50;1.30;;;6.50;99.90;;;;;;5035937;28;20412;-72
2022/04/08 07:46:33;;;;;;;4.57;1.38;;;6.10;99.90;;;;;;5003087;28;20099;-71
2022/04/08 07:48:59;;;;;;;4.85;1.25;;;6.10;99.90;;;;;;5035603;28;20091;-72
2022/04/08 07:51:25;;;;;;;4.97;1.13;;;5.90;99.90;;;;;;5035830;28;20094;-72
2022/04/08 07:53:50;;;;;;;4.22;1.08;;;6.00;99.90;;;;;;5035727;28;20041;-72
2022/04/08 07:56:16;;;;;;;4.65;1.30;;;5.90;99.90;;;;;;5035684;28;20041;-72
2022/04/08 07:58:44;;;;;;;3.10;1.17;;;6.60;99.90;;;;;;5018521;28;20433;-73
2022/04/08 08:01:09;;;;;;;4.07;1.40;;;6.60;99.90;;;;;;5035486;28;20037;-72
2022/04/08 08:03:35;;;;;;;5.90;1.48;;;;;;;;;;5035649;28;20040;-72
2022/04/08 08:06:03;;;;;;;7.20;1.42;;;6.70;99.90;;;;;;5035791;28;20062;-72
2022/04/08 08:08:29;;;;;;;2.13;0.85;;;6.70;99.90;;;;;;5035505;28;20098;-72
2022/04/08 08:10:55;;;;;;;4.55;1.20;;;6.40;99.90;;;;;;5019073;28;20040;-72
2022/04/08 08:13:21;;;;;;;6.20;1.90;;;7.00;99.90;;;;;;5019371;28;20048;-77
2022/04/08 08:15:47;;;;;;;4.82;1.40;;;6.40;99.90;;;;;;5018855;28;20053;-72
2022/04/08 08:18:13;;;;;;;10.73;1.60;;;5.80;99.90;;;;;;5035077;28;20056;-71
2022/04/08 08:20:39;;;;;;;4.65;1.70;;;5.80;99.90;;;;;;5035386;28;20033;-71
2022/04/08 08:23:08;;;;;;;3.40;1.90;;;5.40;99.90;;;;;;5035482;28;20037;-71
2022/04/08 08:25:34;;;;;;;9.65;1.85;;;5.80;99.90;;;;;;5018593;28;20037;-71
2022/04/08 08:28:01;;;;;;;8.73;2.38;;;6.00;99.90;;;;;;5019039;28;20045;-71
2022/04/08 08:30:29;;;;;;;6.10;1.67;;;6.20;99.90;;;;;;5035054;28;20119;-71
2022/04/08 08:32:56;;;;;;;7.72;2.03;;;6.30;99.90;;;;;;5034944;28;20098;-72
2022/04/08 08:35:22;;;;;;;7.45;2.22;;;6.50;99.90;;;;;;5002031;28;20055;-71
2022/04/08 08:37:49;;;;;;;8.70;3.17;;;6.60;99.90;;;;;;5018183;28;20045;-71
2022/04/08 08:40:16;;;;;;;9.48;2.42;;;6.70;99.90;;;;;;5035065;28;20080;-71
2022/04/08 08:42:44;;;;;;;10.45;3.63;;;7.00;99.90;;;;;;5034881;28;20186;-71
2022/04/08 08:45:11;;;;;;;4.20;2.15;;;7.10;99.90;;;;;;5052983;28;20029;-71
2022/04/08 08:47:37;;;;;;;7.50;1.92;;;7.10;99.90;;;;;;5034858;28;20079;-71
2022/04/08 08:50:05;;;;;;;5.90;2.03;;;7.40;99.90;;;;;;5034601;28;20512;-71
2022/04/08 08:52:31;;;;;;;6.15;2.00;;;7.40;99.90;;;;;;5018044;28;20053;-72
2022/04/08 08:54:57;;;;;;;4.07;1.85;;;7.30;99.90;;;;;;5018521;28;20484;-71
2022/04/08 08:57:24;;;;;;;6.93;2.03;;;7.70;99.90;;;;;;5034775;28;20052;-71
2022/04/08 09:00:02;;;;;;;5.50;1.73;;;7.60;99.90;;;;;;5034751;28;20048;-71
2022/04/08 09:02:27;;;;;;;7.30;2.00;;;7.60;99.90;;;;;;5034504;28;20045;-72
2022/04/08 09:04:53;;;;;;;4.35;1.50;;;7.30;99.90;;;;;;5018074;28;20044;-71
2022/04/08 09:07:27;;;;;;;7.68;2.22;;;8.00;99.90;;;;;;5034342;28;20048;-71
2022/04/08 09:09:57;;;;;;;7.22;2.17;;;7.50;99.90;;;;;;5017804;28;20076;-71
2022/04/08 09:12:28;;;;;;;5.25;1.33;;;7.70;99.90;;;;;;5034453;28;20040;-71
2022/04/08 09:14:57;;;;;;;7.05;2.28;;;8.00;99.90;;;;;;5034348;28;20052;-71
2022/04/08 09:17:24;;;;;;;5.80;1.80;;;8.40;99.90;;;;;;5034209;28;20053;-70
2022/04/08 09:19:58;;;;;;;9.70;1.98;;;8.30;99.90;;;;;;5034260;28;20041;-71
2022/04/08 09:22:29;;;;;;;6.82;1.83;;;8.50;99.90;;;;;;5034235;28;20052;-71
2022/04/08 09:25:05;;;;;;;;;;;8.60;99.90;;;;;;5052413;28;20041;-71
2022/04/08 09:27:34;;;;;;;3.72;1.95;;;8.40;99.90;;;;;;5050751;28;19923;-71
2022/04/08 09:30:00;;;;;;;2.63;1.10;;;8.60;99.90;;;;;;5034318;28;20063;-71
2022/04/08 09:32:27;;;;;;;7.28;1.33;;;8.30;99.90;;;;;;5034366;28;20032;-70
2022/04/08 09:34:53;;;;;;;3.85;1.42;;;7.90;99.90;;;;;;5033747;28;20052;-71
2022/04/08 09:37:19;;;;;;;5.57;1.60;;;7.80;99.90;;;;;;5033858;28;20053;-71
2022/04/08 09:40:07;;;;;;;5.32;1.60;;;7.80;99.90;;;;;;5033680;28;20037;-71
2022/04/08 09:42:47;;;;;;;4.85;1.50;;;7.00;99.90;;;;;;5033996;28;20049;-71
2022/04/08 09:45:14;;;;;;;6.72;1.70;;;7.10;99.90;;;;;;5034129;28;20049;-70
2022/04/08 09:47:41;;;;;;;8.23;2.10;;;7.50;99.90;;;;;;5017640;28;20492;-71
2022/04/08 09:50:10;;;;;;;7.30;1.63;;;7.40;99.90;;;;;;5051542;28;20053;-70
2022/04/08 09:52:39;;;;;;;4.70;1.70;;;7.60;99.90;;;;;;5017237;28;20044;-71
2022/04/08 09:55:10;;;;;;;6.20;1.60;;;7.70;99.90;;;;;;5033961;28;20519;-71
2022/04/08 09:57:40;;;;;;;5.35;1.58;;;7.80;99.90;;;;;;5017462;28;20040;-71
2022/04/08 10:00:09;;;;;;;6.28;1.83;;;7.90;99.90;;;;;;5035213;28;20124;-71
2022/04/08 10:02:44;;;;;;;6.47;1.50;;;8.00;99.90;;;;;;5034853;28;20060;-70
2022/04/08 10:05:11;;;;;;;3.08;1.50;;;8.10;99.90;;;;;;5034100;28;20048;-69
2022/04/08 10:07:39;;;;;;;7.75;1.75;;;8.20;99.90;;;;;;5033685;28;20049;-69
2022/04/08 10:10:09;;;;;;;9.45;2.55;;;;;;;;;;5033905;28;20098;-69
2022/04/08 10:12:59;;;;;;;9.35;1.50;;;8.70;99.90;;;;;;5051764;28;20032;-69
2022/04/08 10:15:30;;;;;;;4.07;1.67;;;9.00;99.90;;;;;;5033646;28;20052;-70
2022/04/08 10:17:57;;;;;;;;;;;8.90;99.90;;;;;;5033958;28;20468;-70
2022/04/08 10:20:24;;;;;;;6.10;2.38;;;8.90;99.90;;;;;;5051690;28;19920;-69
2022/04/08 10:22:52;;;;;;;8.05;1.80;;;8.70;99.90;;;;;;5018993;28;20045;-70
2022/04/08 10:25:19;;;;;;;5.18;1.52;;;9.40;99.90;;;;;;5037726;28;20040;-70
2022/04/08 10:27:46;;;;;;;5.97;1.33;;;8.80;99.90;;;;;;5037525;28;20040;-72
2022/04/08 10:30:12;;;;;;;9.88;1.40;;;9.20;99.90;;;;;;5037603;28;20074;-71
2022/04/08 10:32:39;;;;;;;5.80;1.35;;;8.80;99.90;;;;;;5020767;28;20051;-71
2022/04/08 10:35:18;;;;;;;8.88;1.55;;;8.80;99.90;;;;;;5037256;28;20045;-71
2022/04/08 10:38:01;;;;;;;4.18;1.13;;;9.10;99.90;;;;;;5037582;28;20041;-70
2022/04/08 10:40:37;;;;;;;6.03;1.40;;;9.30;99.90;;;;;;5037500;28;20037;-69
2022/04/08 10:43:10;;;;;;;4.90;1.30;;;9.40;99.90;;;;;;5004510;28;20120;-70
2022/04/08 10:45:37;;;;;;;12.57;2.55;;;9.40;99.90;;;;;;5020875;28;20480;-69
2022/04/08 10:48:11;;;;;;;5.30;1.48;;;9.30;99.90;;;;;;5037061;28;20053;-69
2022/04/08 10:50:39;;;;;;;5.60;1.10;;;9.20;99.90;;;;;;5020514;28;20064;-70
2022/04/08 10:53:19;;;;;;;1.95;1.10;;;9.20;99.90;;;;;;5036866;28;20045;-68
2022/04/08 10:55:53;;;;;;;4.95;1.23;;;9.00;99.90;;;;;;5055098;28;20045;-69
2022/04/08 10:58:45;;;;;;;5.15;1.05;;;8.90;99.90;;;;;;5036820;28;20081;-69
2022/04/08 11:01:22;;;;;;;6.28;1.35;;;9.00;99.90;;;;;;5036778;28;20047;-70
2022/04/08 11:04:07;;;;;;;9.00;2.30;;;9.00;99.90;;;;;;5036788;28;20040;-70
2022/04/08 11:06:37;;;;;;;8.02;2.25;;;;;;;;;;5036868;28;20049;-69
2022/04/08 11:09:08;;;;;;;3.00;1.23;;;8.90;99.90;;;;;;5053195;28;20049;-69
2022/04/08 11:11:36;;;;;;;6.20;1.30;;;8.90;99.90;;;;;;5036676;28;20076;-68
2022/04/08 11:14:03;;;;;;;5.40;1.65;;;9.00;99.90;;;;;;5036725;28;20048;-69
2022/04/08 11:16:32;;;;;;;4.80;1.45;;;9.20;99.90;;;;;;5037177;28;20090;-69
2022/04/08 11:18:58;;;;;;;8.80;1.40;;;9.30;99.90;;;;;;5036331;28;20051;-69
2022/04/08 11:21:24;;;;;;;5.43;1.88;;;9.30;99.90;;;;;;5020220;28;20041;-71
2022/04/08 11:24:17;;;;;;;3.83;1.55;;;9.40;99.90;;;;;;5019642;28;20145;-68
2022/04/08 11:26:47;;;;;;;5.93;1.63;;;9.60;99.90;;;;;;5033255;28;20131;-71
2022/04/08 11:29:14;;;;;;;8.32;1.48;;;9.80;99.90;;;;;;5036223;28;20048;-71
2022/04/08 11:31:40;;;;;;;6.72;1.40;;;9.70;99.90;;;;;;5019784;28;20048;-69
2022/04/08 11:34:06;;;;;;;3.38;1.15;;;9.50;99.90;;;;;;5054309;28;20036;-70
2022/04/08 11:36:34;;;;;;;5.70;2.47;;;9.50;99.90;;;;;;5036108;28;20110;-70
2022/04/08 11:38:59;;;;;;;3.85;1.02;;;9.40;99.90;;;;;;5035862;28;20179;-70
2022/04/08 11:41:27;;;;;;;4.80;1.45;;;9.60;99.90;;;;;;5054302;28;20119;-70
2022/04/08 11:43:54;;;;;;;7.38;1.65;;;9.60;99.90;;;;;;5035701;28;20123;-70
2022/04/08 11:46:20;;;;;;;2.78;1.05;;;;;;;;;;5019536;28;20045;-69
2022/04/08 11:48:46;;;;;;;4.60;1.30;;;9.20;99.90;;;;;;5035733;28;20049;-69
2022/04/08 11:51:12;;;;;;;3.35;1.23;;;8.80;99.90;;;;;;5019677;28;20071;-69
2022/04/08 11:53:53;;;;;;;3.42;1.10;;;8.60;99.90;;;;;;5035907;28;20499;-70
2022/04/08 11:56:20;;;;;;;2.75;1.13;;;8.40;99.90;;;;;;5035949;28;20052;-69
2022/04/08 11:59:11;;;;;;;4.57;1.10;;;8.20;99.90;;;;;;5053879;28;20045;-69
2022/04/08 12:01:41;;;;;;;4.20;1.20;;;8.20;99.90;;;;;;5031982;28;20064;-70
2022/04/08 12:04:11;;;;;;;4.65;1.23;;;8.30;99.90;;;;;;5035649;28;20068;-70
2022/04/08 12:06:42;;;;;;;5.78;1.55;;;8.60;99.90;;;;;;5035564;28;20096;-69
2022/04/08 12:09:13;;;;;;;5.05;0.98;;;9.10;99.90;;;;;;5019612;28;20850;-69
2022/04/08 12:11:42;;;;;;;2.45;0.68;;;9.10;99.90;;;;;;5035830;28;20040;-69
2022/04/08 12:14:09;;;;;;;4.57;1.20;;;9.00;99.90;;;;;;5035736;28;20047;-69
2022/04/08 12:16:37;;;;;;;2.20;0.85;;;;;;;;;;5035362;28;20044;-69
2022/04/08 12:19:03;;;;;;;4.65;1.15;;;9.70;99.90;;;;;;5051924;28;20114;-70
2022/04/08 12:21:31;;;;;;;4.50;1.30;;;9.90;99.90;;;;;;5035288;28;20045;-69
2022/04/08 12:24:03;;;;;;;1.73;0.90;;;10.00;99.90;;;;;;5035324;28;20076;-69
2022/04/08 12:26:30;;;;;;;3.85;1.27;;;10.00;99.90;;;;;;5035187;28;20041;-69
2022/04/08 12:29:12;;;;;;;4.22;0.95;;;10.10;99.90;;;;;;5035519;28;20045;-70
2022/04/08 12:31:54;;;;;;;4.35;1.10;;;10.20;99.90;;;;;;5035028;28;20087;-70
2022/04/08 12:34:20;;;;;;;3.80;1.15;;;10.40;99.90;;;;;;5035339;28;20044;-69
2022/04/08 12:36:48;;;;;;;5.22;0.90;;;10.60;99.90;;;;;;5018235;28;20052;-69
2022/04/08 12:39:14;;;;;;;5.20;1.20;;;10.50;99.90;;;;;;5034857;28;20041;-69
2022/04/08 12:41:41;;;;;;;3.28;0.90;;;10.50;99.90;;;;;;5052739;28;20090;-72
2022/04/08 12:44:08;;;;;;;5.47;1.02;;;10.40;99.90;;;;;;5035118;28;20041;-69
2022/04/08 12:46:34;;;;;;;4.82;1.27;;;10.30;99.90;;;;;;5034864;28;20076;-69
2022/04/08 12:49:00;;;;;;;2.58;1.02;;;10.20;99.90;;;;;;5034592;28;20061;-69
2022/04/08 12:51:27;;;;;;;2.97;0.70;;;10.20;99.90;;;;;;5035101;28;20553;-69
2022/04/08 12:53:53;;;;;;;6.38;1.00;;;10.10;99.90;;;;;;5018156;28;20048;-70
2022/04/08 12:56:19;;;;;;;4.95;1.00;;;10.00;99.90;;;;;;5034483;28;20045;-69
2022/04/08 12:58:46;;;;;;;3.67;1.00;;;10.00;99.90;;;;;;5034807;28;20087;-69
2022/04/08 13:01:12;;;;;;;2.35;0.80;;;10.10;99.90;;;;;;5034498;28;20049;-71
2022/04/08 13:03:38;;;;;;;6.38;0.85;;;10.00;99.90;;;;;;5018079;28;20097;-70